sensor_id;sensor_type;location;lat;lon;timestamp;pressure;altitude;pressure_sealevel;temperature;humidity
7200;BME280;3641;49.082;8.200;2024-03-08T00:00:03;100282.47;;;5.27;81.77
7200;BME280;3641;49.082;8.200;2024-03-08T00:02:35;100288.72;;;5.27;81.66
7200;BME280;3641;49.082;8.200;2024-03-08T00:05:02;100291.09;;;5.13;82.34
7200;BME280;3641;49.082;8.200;2024-03-08T00:07:28;100283.25;;;5.37;80.91
7200;BME280;3641;49.082;8.200;2024-03-08T00:09:55;100277.81;;;5.37;80.59
7200;BME280;3641;49.082;8.200;2024-03-08T00:12:23;100276.91;;;5.28;81.24
7200;BME280;3641;49.082;8.200;2024-03-08T00:14:51;100269.25;;;5.42;80.40
7200;BME280;3641;49.082;8.200;2024-03-08T00:17:17;100269.47;;;5.31;81.34
7200;BME280;3641;49.082;8.200;2024-03-08T00:19:43;100270.38;;;5.21;81.37
7200;BME280;3641;49.082;8.200;2024-03-08T00:22:10;100268.72;;;5.20;82.29
7200;BME280;3641;49.082;8.200;2024-03-08T00:24:36;100266.78;;;5.31;80.75
7200;BME280;3641;49.082;8.200;2024-03-08T00:27:03;100267.53;;;5.23;81.49
7200;BME280;3641;49.082;8.200;2024-03-08T00:29:31;100266.72;;;4.95;82.06
7200;BME280;3641;49.082;8.200;2024-03-08T00:31:57;100263.25;;;5.02;82.32
7200;BME280;3641;49.082;8.200;2024-03-08T00:34:24;100265.31;;;4.90;81.43
7200;BME280;3641;49.082;8.200;2024-03-08T00:36:50;100261.47;;;4.93;82.37
7200;BME280;3641;49.082;8.200;2024-03-08T00:39:17;100254.25;;;4.84;83.29
7200;BME280;3641;49.082;8.200;2024-03-08T00:41:46;100255.19;;;4.93;81.93
7200;BME280;3641;49.082;8.200;2024-03-08T00:44:12;100261.25;;;4.77;83.51
7200;BME280;3641;49.082;8.200;2024-03-08T00:46:40;100254.78;;;4.60;83.94
7200;BME280;3641;49.082;8.200;2024-03-08T00:49:08;100251.09;;;4.88;82.34
7200;BME280;3641;49.082;8.200;2024-03-08T00:51:34;100254.31;;;4.74;82.84
7200;BME280;3641;49.082;8.200;2024-03-08T00:54:01;100255.75;;;4.68;83.58
7200;BME280;3641;49.082;8.200;2024-03-08T00:56:27;100250.44;;;5.04;81.14
7200;BME280;3641;49.082;8.200;2024-03-08T00:58:54;100244.56;;;4.81;82.25
7200;BME280;3641;49.082;8.200;2024-03-08T01:01:20;100251.53;;;4.84;82.00
7200;BME280;3641;49.082;8.200;2024-03-08T01:03:48;100246.72;;;5.05;80.49
7200;BME280;3641;49.082;8.200;2024-03-08T01:06:14;100244.06;;;4.96;81.07
7200;BME280;3641;49.082;8.200;2024-03-08T01:08:41;100243.53;;;4.92;80.90
7200;BME280;3641;49.082;8.200;2024-03-08T01:11:08;100238.81;;;4.94;81.04
7200;BME280;3641;49.082;8.200;2024-03-08T01:13:35;100236.56;;;4.62;82.82
7200;BME280;3641;49.082;8.200;2024-03-08T01:16:01;100234.75;;;4.80;81.90
7200;BME280;3641;49.082;8.200;2024-03-08T01:18:29;100229.50;;;4.51;83.10
7200;BME280;3641;49.082;8.200;2024-03-08T01:20:56;100224.19;;;4.87;80.96
7200;BME280;3641;49.082;8.200;2024-03-08T01:23:23;100225.13;;;4.96;80.36
7200;BME280;3641;49.082;8.200;2024-03-08T01:25:50;100226.16;;;4.95;80.12
7200;BME280;3641;49.082;8.200;2024-03-08T01:28:22;100218.94;;;4.85;80.58
7200;BME280;3641;49.082;8.200;2024-03-08T01:30:48;100218.09;;;4.57;82.27
7200;BME280;3641;49.082;8.200;2024-03-08T01:33:15;100218.06;;;4.85;80.76
7200;BME280;3641;49.082;8.200;2024-03-08T01:35:41;100210.41;;;4.25;84.03
7200;BME280;3641;49.082;8.200;2024-03-08T01:38:09;100206.06;;;4.42;82.18
7200;BME280;3641;49.082;8.200;2024-03-08T01:40:36;100202.84;;;4.28;83.61
7200;BME280;3641;49.082;8.200;2024-03-08T01:43:17;100197.09;;;4.69;80.91
7200;BME280;3641;49.082;8.200;2024-03-08T01:45:43;100196.72;;;4.64;81.05
7200;BME280;3641;49.082;8.200;2024-03-08T01:48:10;100187.50;;;4.57;81.10
7200;BME280;3641;49.082;8.200;2024-03-08T01:50:37;100190.59;;;4.62;80.66
7200;BME280;3641;49.082;8.200;2024-03-08T01:53:04;100199.94;;;4.12;82.58
7200;BME280;3641;49.082;8.200;2024-03-08T01:55:33;100195.19;;;4.24;82.60
7200;BME280;3641;49.082;8.200;2024-03-08T01:58:01;100186.94;;;4.53;80.78
7200;BME280;3641;49.082;8.200;2024-03-08T02:00:29;100186.69;;;4.46;81.29
7200;BME280;3641;49.082;8.200;2024-03-08T02:02:57;100178.94;;;4.33;81.97
7200;BME280;3641;49.082;8.200;2024-03-08T02:05:23;100173.91;;;4.11;83.42
7200;BME280;3641;49.082;8.200;2024-03-08T02:07:50;100166.06;;;4.17;82.73
7200;BME280;3641;49.082;8.200;2024-03-08T02:10:17;100159.97;;;4.15;82.17
7200;BME280;3641;49.082;8.200;2024-03-08T02:12:46;100159.00;;;4.07;83.30
7200;BME280;3641;49.082;8.200;2024-03-08T02:15:12;100158.00;;;4.08;82.56
7200;BME280;3641;49.082;8.200;2024-03-08T02:17:40;100153.19;;;4.02;83.08
7200;BME280;3641;49.082;8.200;2024-03-08T02:20:07;100154.31;;;4.09;82.67
7200;BME280;3641;49.082;8.200;2024-03-08T02:22:36;100152.34;;;4.01;83.15
7200;BME280;3641;49.082;8.200;2024-03-08T02:25:03;100157.38;;;3.86;83.43
7200;BME280;3641;49.082;8.200;2024-03-08T02:27:30;100153.22;;;3.92;82.69
7200;BME280;3641;49.082;8.200;2024-03-08T02:29:58;100146.41;;;3.97;82.98
7200;BME280;3641;49.082;8.200;2024-03-08T02:32:25;100159.53;;;3.73;84.15
7200;BME280;3641;49.082;8.200;2024-03-08T02:34:56;100150.84;;;3.79;84.01
7200;BME280;3641;49.082;8.200;2024-03-08T02:37:25;100148.00;;;3.80;83.29
7200;BME280;3641;49.082;8.200;2024-03-08T02:39:52;100136.13;;;3.54;84.82
7200;BME280;3641;49.082;8.200;2024-03-08T02:42:19;100145.44;;;3.79;83.20
7200;BME280;3641;49.082;8.200;2024-03-08T02:44:45;100136.03;;;3.93;81.92
7200;BME280;3641;49.082;8.200;2024-03-08T02:47:12;100140.28;;;3.95;82.62
7200;BME280;3641;49.082;8.200;2024-03-08T02:49:38;100137.03;;;3.92;82.71
7200;BME280;3641;49.082;8.200;2024-03-08T02:52:05;100132.78;;;3.79;83.84
7200;BME280;3641;49.082;8.200;2024-03-08T02:54:32;100146.31;;;3.70;82.90
7200;BME280;3641;49.082;8.200;2024-03-08T02:57:01;100138.72;;;3.93;82.51
7200;BME280;3641;49.082;8.200;2024-03-08T02:59:29;100124.91;;;4.06;80.88
7200;BME280;3641;49.082;8.200;2024-03-08T03:01:55;100125.88;;;4.05;80.82
7200;BME280;3641;49.082;8.200;2024-03-08T03:04:22;100129.78;;;3.82;82.62
7200;BME280;3641;49.082;8.200;2024-03-08T03:06:48;100131.44;;;3.66;83.58
7200;BME280;3641;49.082;8.200;2024-03-08T03:09:14;100130.81;;;3.81;81.77
7200;BME280;3641;49.082;8.200;2024-03-08T03:11:44;100125.31;;;3.63;82.82
7200;BME280;3641;49.082;8.200;2024-03-08T03:14:11;100122.25;;;3.39;85.27
7200;BME280;3641;49.082;8.200;2024-03-08T03:16:38;100117.91;;;3.75;82.26
7200;BME280;3641;49.082;8.200;2024-03-08T03:19:05;100112.84;;;3.53;83.48
7200;BME280;3641;49.082;8.200;2024-03-08T03:21:33;100117.41;;;3.42;83.66
7200;BME280;3641;49.082;8.200;2024-03-08T03:24:01;100110.56;;;3.58;82.95
7200;BME280;3641;49.082;8.200;2024-03-08T03:26:29;100115.16;;;3.28;84.50
7200;BME280;3641;49.082;8.200;2024-03-08T03:28:56;100105.19;;;3.28;83.77
7200;BME280;3641;49.082;8.200;2024-03-08T03:31:25;100106.94;;;3.20;84.50
7200;BME280;3641;49.082;8.200;2024-03-08T03:33:51;100105.66;;;3.24;84.28
7200;BME280;3641;49.082;8.200;2024-03-08T03:36:17;100102.97;;;3.24;84.89
7200;BME280;3641;49.082;8.200;2024-03-08T03:38:44;100097.13;;;3.38;83.23
7200;BME280;3641;49.082;8.200;2024-03-08T03:41:10;100093.81;;;3.44;82.51
7200;BME280;3641;49.082;8.200;2024-03-08T03:43:37;100094.00;;;3.23;84.28
7200;BME280;3641;49.082;8.200;2024-03-08T03:46:06;100087.63;;;3.24;84.63
7200;BME280;3641;49.082;8.200;2024-03-08T03:48:33;100088.50;;;3.05;85.41
7200;BME280;3641;49.082;8.200;2024-03-08T03:51:00;100086.91;;;3.03;84.88
7200;BME280;3641;49.082;8.200;2024-03-08T03:53:26;100088.47;;;3.25;83.81
7200;BME280;3641;49.082;8.200;2024-03-08T03:55:52;100083.78;;;3.37;82.79
7200;BME280;3641;49.082;8.200;2024-03-08T03:58:19;100079.56;;;3.15;83.60
7200;BME280;3641;49.082;8.200;2024-03-08T04:00:47;100079.56;;;3.05;84.18
7200;BME280;3641;49.082;8.200;2024-03-08T04:03:14;100087.34;;;3.18;83.37
7200;BME280;3641;49.082;8.200;2024-03-08T04:05:43;100082.97;;;3.07;83.93
7200;BME280;3641;49.082;8.200;2024-03-08T04:08:09;100081.06;;;3.27;82.77
7200;BME280;3641;49.082;8.200;2024-03-08T04:10:36;100075.53;;;3.28;81.98
7200;BME280;3641;49.082;8.200;2024-03-08T04:13:03;100077.88;;;2.84;84.97
7200;BME280;3641;49.082;8.200;2024-03-08T04:15:29;100076.72;;;3.06;84.27
7200;BME280;3641;49.082;8.200;2024-03-08T04:17:55;100083.09;;;3.15;83.22
7200;BME280;3641;49.082;8.200;2024-03-08T04:20:22;100078.16;;;2.91;84.82
7200;BME280;3641;49.082;8.200;2024-03-08T04:22:50;100077.84;;;3.14;82.94
7200;BME280;3641;49.082;8.200;2024-03-08T04:25:16;100071.59;;;3.13;82.80
7200;BME280;3641;49.082;8.200;2024-03-08T04:27:43;100071.31;;;2.97;84.08
7200;BME280;3641;49.082;8.200;2024-03-08T04:30:10;100066.50;;;3.00;83.40
7200;BME280;3641;49.082;8.200;2024-03-08T04:32:37;100064.50;;;3.02;82.96
7200;BME280;3641;49.082;8.200;2024-03-08T04:35:04;100066.06;;;3.15;82.56
7200;BME280;3641;49.082;8.200;2024-03-08T04:37:31;100061.97;;;2.71;84.24
7200;BME280;3641;49.082;8.200;2024-03-08T04:39:58;100064.97;;;2.68;85.54
7200;BME280;3641;49.082;8.200;2024-03-08T04:42:25;100052.47;;;2.77;84.63
7200;BME280;3641;49.082;8.200;2024-03-08T04:44:52;100058.13;;;3.03;82.77
7200;BME280;3641;49.082;8.200;2024-03-08T04:47:19;100054.44;;;2.85;83.67
7200;BME280;3641;49.082;8.200;2024-03-08T04:49:46;100050.34;;;2.61;85.44
7200;BME280;3641;49.082;8.200;2024-03-08T04:52:12;100048.38;;;2.63;85.21
7200;BME280;3641;49.082;8.200;2024-03-08T04:54:39;100051.31;;;2.50;86.60
7200;BME280;3641;49.082;8.200;2024-03-08T04:57:07;100049.06;;;2.75;83.89
7200;BME280;3641;49.082;8.200;2024-03-08T04:59:33;100046.50;;;2.73;83.76
7200;BME280;3641;49.082;8.200;2024-03-08T05:02:00;100048.50;;;2.62;85.00
7200;BME280;3641;49.082;8.200;2024-03-08T05:04:26;100043.91;;;2.33;85.63
7200;BME280;3641;49.082;8.200;2024-03-08T05:06:54;100039.56;;;2.61;85.55
7200;BME280;3641;49.082;8.200;2024-03-08T05:09:20;100036.44;;;2.85;82.95
7200;BME280;3641;49.082;8.200;2024-03-08T05:11:48;100036.56;;;2.84;82.88
7200;BME280;3641;49.082;8.200;2024-03-08T05:14:16;100035.13;;;2.99;82.23
7200;BME280;3641;49.082;8.200;2024-03-08T05:16:45;100036.31;;;2.67;83.79
7200;BME280;3641;49.082;8.200;2024-03-08T05:19:13;100046.06;;;2.49;84.15
7200;BME280;3641;49.082;8.200;2024-03-08T05:21:42;100049.63;;;2.40;85.22
7200;BME280;3641;49.082;8.200;2024-03-08T05:24:08;100044.66;;;2.64;83.86
7200;BME280;3641;49.082;8.200;2024-03-08T05:26:35;100047.78;;;2.40;85.87
7200;BME280;3641;49.082;8.200;2024-03-08T05:29:02;100049.06;;;2.56;85.51
7200;BME280;3641;49.082;8.200;2024-03-08T05:31:31;100037.41;;;2.65;84.54
7200;BME280;3641;49.082;8.200;2024-03-08T05:34:02;100041.28;;;2.52;84.54
7200;BME280;3641;49.082;8.200;2024-03-08T05:36:29;100043.53;;;2.47;85.00
7200;BME280;3641;49.082;8.200;2024-03-08T05:38:55;100039.97;;;2.66;83.80
7200;BME280;3641;49.082;8.200;2024-03-08T05:41:21;100037.13;;;2.58;83.38
7200;BME280;3641;49.082;8.200;2024-03-08T05:43:48;100030.91;;;2.58;84.13
7200;BME280;3641;49.082;8.200;2024-03-08T05:46:15;100039.69;;;2.50;83.33
7200;BME280;3641;49.082;8.200;2024-03-08T05:48:44;100035.28;;;2.49;84.28
7200;BME280;3641;49.082;8.200;2024-03-08T05:51:11;100036.88;;;2.61;83.74
7200;BME280;3641;49.082;8.200;2024-03-08T05:53:38;100035.19;;;2.70;82.77
7200;BME280;3641;49.082;8.200;2024-03-08T05:56:05;100032.91;;;2.65;83.41
7200;BME280;3641;49.082;8.200;2024-03-08T05:58:32;100030.63;;;2.51;83.90
7200;BME280;3641;49.082;8.200;2024-03-08T06:00:58;100035.56;;;2.36;85.29
7200;BME280;3641;49.082;8.200;2024-03-08T06:03:25;100034.31;;;2.40;84.35
7200;BME280;3641;49.082;8.200;2024-03-08T06:05:52;100026.00;;;2.03;86.81
7200;BME280;3641;49.082;8.200;2024-03-08T06:08:19;100026.91;;;2.32;86.16
7200;BME280;3641;49.082;8.200;2024-03-08T06:10:46;100026.06;;;2.22;85.56
7200;BME280;3641;49.082;8.200;2024-03-08T06:13:17;100017.31;;;2.40;84.96
7200;BME280;3641;49.082;8.200;2024-03-08T06:15:44;100008.81;;;2.44;84.35
7200;BME280;3641;49.082;8.200;2024-03-08T06:18:11;100012.59;;;2.22;86.24
7200;BME280;3641;49.082;8.200;2024-03-08T06:20:37;100017.41;;;2.18;86.26
7200;BME280;3641;49.082;8.200;2024-03-08T06:23:05;100022.09;;;2.16;86.48
7200;BME280;3641;49.082;8.200;2024-03-08T06:25:32;100019.78;;;2.02;87.40
7200;BME280;3641;49.082;8.200;2024-03-08T06:28:00;100018.81;;;2.03;87.40
7200;BME280;3641;49.082;8.200;2024-03-08T06:30:26;100022.25;;;2.34;86.42
7200;BME280;3641;49.082;8.200;2024-03-08T06:32:53;100016.56;;;2.38;86.18
7200;BME280;3641;49.082;8.200;2024-03-08T06:35:19;100013.19;;;2.45;85.08
7200;BME280;3641;49.082;8.200;2024-03-08T06:37:46;100014.75;;;2.38;85.63
7200;BME280;3641;49.082;8.200;2024-03-08T06:40:14;100021.66;;;2.21;87.11
7200;BME280;3641;49.082;8.200;2024-03-08T06:42:40;100012.00;;;2.09;87.66
7200;BME280;3641;49.082;8.200;2024-03-08T06:45:08;100030.16;;;2.26;87.65
7200;BME280;3641;49.082;8.200;2024-03-08T06:47:35;100013.88;;;2.18;87.18
7200;BME280;3641;49.082;8.200;2024-03-08T06:50:02;100006.38;;;2.41;87.02
7200;BME280;3641;49.082;8.200;2024-03-08T06:52:29;100006.34;;;2.22;87.04
7200;BME280;3641;49.082;8.200;2024-03-08T06:54:55;100006.09;;;2.44;86.08
7200;BME280;3641;49.082;8.200;2024-03-08T06:57:23;100009.50;;;2.56;85.22
7200;BME280;3641;49.082;8.200;2024-03-08T06:59:50;100015.59;;;2.68;85.82
7200;BME280;3641;49.082;8.200;2024-03-08T07:02:17;100006.38;;;2.51;86.39
7200;BME280;3641;49.082;8.200;2024-03-08T07:04:44;100004.25;;;2.45;86.71
7200;BME280;3641;49.082;8.200;2024-03-08T07:07:10;100006.66;;;2.48;86.42
7200;BME280;3641;49.082;8.200;2024-03-08T07:09:37;100003.25;;;2.36;87.14
7200;BME280;3641;49.082;8.200;2024-03-08T07:12:04;100000.72;;;2.44;87.33
7200;BME280;3641;49.082;8.200;2024-03-08T07:14:31;99992.19;;;2.68;85.83
7200;BME280;3641;49.082;8.200;2024-03-08T07:16:58;100000.00;;;2.42;86.66
7200;BME280;3641;49.082;8.200;2024-03-08T07:19:24;100003.84;;;2.40;87.03
7200;BME280;3641;49.082;8.200;2024-03-08T07:21:51;100004.53;;;2.71;85.87
7200;BME280;3641;49.082;8.200;2024-03-08T07:24:17;100000.16;;;2.60;86.62
7200;BME280;3641;49.082;8.200;2024-03-08T07:27:05;99991.31;;;2.87;85.08
7200;BME280;3641;49.082;8.200;2024-03-08T07:29:33;99993.16;;;2.87;84.88
7200;BME280;3641;49.082;8.200;2024-03-08T07:32:00;99995.47;;;2.62;85.95
7200;BME280;3641;49.082;8.200;2024-03-08T07:34:38;99998.44;;;2.69;85.56
7200;BME280;3641;49.082;8.200;2024-03-08T07:37:05;99996.41;;;2.81;85.73
7200;BME280;3641;49.082;8.200;2024-03-08T07:39:36;99989.59;;;2.96;84.89
7200;BME280;3641;49.082;8.200;2024-03-08T07:42:02;99992.19;;;2.78;85.79
7200;BME280;3641;49.082;8.200;2024-03-08T07:44:29;99991.19;;;2.89;86.08
7200;BME280;3641;49.082;8.200;2024-03-08T07:46:58;99984.50;;;2.93;85.21
7200;BME280;3641;49.082;8.200;2024-03-08T07:49:24;99985.63;;;3.00;85.25
7200;BME280;3641;49.082;8.200;2024-03-08T07:51:51;99984.00;;;3.17;85.03
7200;BME280;3641;49.082;8.200;2024-03-08T07:54:18;99979.75;;;3.15;84.16
7200;BME280;3641;49.082;8.200;2024-03-08T07:56:45;99972.28;;;3.36;84.02
7200;BME280;3641;49.082;8.200;2024-03-08T07:59:12;99972.88;;;3.30;83.83
7200;BME280;3641;49.082;8.200;2024-03-08T08:01:38;99972.59;;;3.33;83.45
7200;BME280;3641;49.082;8.200;2024-03-08T08:04:06;99958.81;;;3.36;83.68
7200;BME280;3641;49.082;8.200;2024-03-08T08:06:37;99960.47;;;3.47;83.42
7200;BME280;3641;49.082;8.200;2024-03-08T08:09:06;99954.53;;;3.43;83.57
7200;BME280;3641;49.082;8.200;2024-03-08T08:11:35;99949.22;;;3.52;83.37
7200;BME280;3641;49.082;8.200;2024-03-08T08:14:01;99943.69;;;3.53;83.05
7200;BME280;3641;49.082;8.200;2024-03-08T08:16:28;99955.25;;;3.63;82.18
7200;BME280;3641;49.082;8.200;2024-03-08T08:18:54;99954.66;;;3.70;82.43
7200;BME280;3641;49.082;8.200;2024-03-08T08:21:22;99949.13;;;3.71;82.11
7200;BME280;3641;49.082;8.200;2024-03-08T08:23:50;99953.84;;;3.87;81.59
7200;BME280;3641;49.082;8.200;2024-03-08T08:26:16;99954.75;;;3.78;81.85
7200;BME280;3641;49.082;8.200;2024-03-08T08:28:43;99951.31;;;3.86;81.33
7200;BME280;3641;49.082;8.200;2024-03-08T08:31:11;99952.22;;;3.76;80.57
7200;BME280;3641;49.082;8.200;2024-03-08T08:33:38;99949.28;;;3.88;81.53
7200;BME280;3641;49.082;8.200;2024-03-08T08:36:06;99934.44;;;4.02;80.81
7200;BME280;3641;49.082;8.200;2024-03-08T08:38:34;99939.59;;;4.13;80.38
7200;BME280;3641;49.082;8.200;2024-03-08T08:41:00;99938.22;;;4.09;80.53
7200;BME280;3641;49.082;8.200;2024-03-08T08:43:27;99939.06;;;4.09;79.31
7200;BME280;3641;49.082;8.200;2024-03-08T08:45:54;99947.41;;;4.16;79.34
7200;BME280;3641;49.082;8.200;2024-03-08T08:48:20;99941.63;;;4.11;79.04
7200;BME280;3641;49.082;8.200;2024-03-08T08:50:47;99945.16;;;4.11;78.85
7200;BME280;3641;49.082;8.200;2024-03-08T08:53:15;99946.72;;;4.32;78.73
7200;BME280;3641;49.082;8.200;2024-03-08T08:55:43;99948.03;;;4.28;77.77
7200;BME280;3641;49.082;8.200;2024-03-08T08:58:11;99948.50;;;4.23;77.65
7200;BME280;3641;49.082;8.200;2024-03-08T09:00:38;99942.19;;;4.32;77.75
7200;BME280;3641;49.082;8.200;2024-03-08T09:03:05;99943.16;;;4.31;77.81
7200;BME280;3641;49.082;8.200;2024-03-08T09:05:33;99939.44;;;4.14;76.91
7200;BME280;3641;49.082;8.200;2024-03-08T09:08:00;99935.28;;;4.20;77.64
7200;BME280;3641;49.082;8.200;2024-03-08T09:10:26;99933.59;;;4.19;77.89
7200;BME280;3641;49.082;8.200;2024-03-08T09:12:54;99930.97;;;4.27;77.41
7200;BME280;3641;49.082;8.200;2024-03-08T09:15:21;99930.03;;;4.36;77.06
7200;BME280;3641;49.082;8.200;2024-03-08T09:17:47;99936.78;;;4.32;77.51
7200;BME280;3641;49.082;8.200;2024-03-08T09:20:14;99937.00;;;4.39;77.77
7200;BME280;3641;49.082;8.200;2024-03-08T09:22:40;99931.44;;;4.41;77.70
7200;BME280;3641;49.082;8.200;2024-03-08T09:25:08;99934.41;;;4.55;77.10
7200;BME280;3641;49.082;8.200;2024-03-08T09:27:35;99937.59;;;4.51;76.34
7200;BME280;3641;49.082;8.200;2024-03-08T09:30:03;99936.81;;;4.59;76.25
7200;BME280;3641;49.082;8.200;2024-03-08T09:32:32;99928.28;;;4.71;76.52
7200;BME280;3641;49.082;8.200;2024-03-08T09:34:58;99929.88;;;4.38;76.37
7200;BME280;3641;49.082;8.200;2024-03-08T09:37:26;99912.31;;;4.60;76.57
7200;BME280;3641;49.082;8.200;2024-03-08T09:39:52;99919.69;;;4.76;77.04
7200;BME280;3641;49.082;8.200;2024-03-08T09:42:19;99909.88;;;4.75;75.65
7200;BME280;3641;49.082;8.200;2024-03-08T09:44:46;99918.00;;;4.75;76.24
7200;BME280;3641;49.082;8.200;2024-03-08T09:47:14;99911.97;;;4.81;75.72
7200;BME280;3641;49.082;8.200;2024-03-08T09:49:41;99904.50;;;5.01;75.37
7200;BME280;3641;49.082;8.200;2024-03-08T09:52:08;99908.06;;;5.10;75.27
7200;BME280;3641;49.082;8.200;2024-03-08T09:54:35;99898.06;;;4.76;75.08
7200;BME280;3641;49.082;8.200;2024-03-08T09:57:03;99898.59;;;5.06;75.55
7200;BME280;3641;49.082;8.200;2024-03-08T09:59:30;99891.66;;;5.03;74.90
7200;BME280;3641;49.082;8.200;2024-03-08T10:02:16;99889.66;;;5.14;74.95
7200;BME280;3641;49.082;8.200;2024-03-08T10:04:43;99881.44;;;5.23;74.61
7200;BME280;3641;49.082;8.200;2024-03-08T10:07:11;99877.84;;;5.57;73.12
7200;BME280;3641;49.082;8.200;2024-03-08T10:09:38;99875.34;;;5.80;70.63
7200;BME280;3641;49.082;8.200;2024-03-08T10:12:05;99886.31;;;5.62;72.65
7200;BME280;3641;49.082;8.200;2024-03-08T10:14:31;99876.63;;;6.19;71.51
7200;BME280;3641;49.082;8.200;2024-03-08T10:16:58;99878.75;;;5.91;71.44
7200;BME280;3641;49.082;8.200;2024-03-08T10:19:27;99867.44;;;5.95;71.78
7200;BME280;3641;49.082;8.200;2024-03-08T10:21:55;99864.94;;;6.10;72.68
7200;BME280;3641;49.082;8.200;2024-03-08T10:24:24;99864.50;;;5.80;71.10
7200;BME280;3641;49.082;8.200;2024-03-08T10:26:52;99864.59;;;5.97;71.27
7200;BME280;3641;49.082;8.200;2024-03-08T10:29:18;99863.69;;;5.88;72.26
7200;BME280;3641;49.082;8.200;2024-03-08T10:31:45;99874.56;;;5.96;72.75
7200;BME280;3641;49.082;8.200;2024-03-08T10:34:12;99863.16;;;5.76;71.87
7200;BME280;3641;49.082;8.200;2024-03-08T10:36:41;99860.66;;;5.99;73.58
7200;BME280;3641;49.082;8.200;2024-03-08T10:39:14;99856.06;;;5.92;72.16
7200;BME280;3641;49.082;8.200;2024-03-08T10:41:56;99862.00;;;5.87;71.73
7200;BME280;3641;49.082;8.200;2024-03-08T10:44:43;99854.25;;;6.09;72.16
7200;BME280;3641;49.082;8.200;2024-03-08T10:47:18;99855.09;;;6.09;70.93
7200;BME280;3641;49.082;8.200;2024-03-08T10:49:51;99848.16;;;6.40;70.13
7200;BME280;3641;49.082;8.200;2024-03-08T10:52:20;99854.09;;;6.43;70.60
7200;BME280;3641;49.082;8.200;2024-03-08T10:54:47;99837.66;;;6.45;70.78
7200;BME280;3641;49.082;8.200;2024-03-08T10:57:14;99843.41;;;6.09;71.47
7200;BME280;3641;49.082;8.200;2024-03-08T10:59:43;99841.00;;;6.63;71.10
7200;BME280;3641;49.082;8.200;2024-03-08T11:02:11;99843.47;;;6.98;71.90
7200;BME280;3641;49.082;8.200;2024-03-08T11:04:38;99841.94;;;6.95;70.27
7200;BME280;3641;49.082;8.200;2024-03-08T11:07:04;99832.44;;;6.99;69.40
7200;BME280;3641;49.082;8.200;2024-03-08T11:09:35;99837.91;;;6.91;70.32
7200;BME280;3641;49.082;8.200;2024-03-08T11:12:20;99836.34;;;6.97;70.21
7200;BME280;3641;49.082;8.200;2024-03-08T11:14:48;99833.53;;;6.73;70.26
7200;BME280;3641;49.082;8.200;2024-03-08T11:17:14;99835.38;;;6.81;71.29
7200;BME280;3641;49.082;8.200;2024-03-08T11:19:46;99822.13;;;6.86;71.05
7200;BME280;3641;49.082;8.200;2024-03-08T11:22:21;99828.38;;;6.95;70.95
7200;BME280;3641;49.082;8.200;2024-03-08T11:24:50;99830.75;;;6.98;70.60
7200;BME280;3641;49.082;8.200;2024-03-08T11:27:16;99822.84;;;6.80;70.50
7200;BME280;3641;49.082;8.200;2024-03-08T11:29:43;99823.97;;;6.86;69.78
7200;BME280;3641;49.082;8.200;2024-03-08T11:32:11;99827.59;;;6.62;70.08
7200;BME280;3641;49.082;8.200;2024-03-08T11:34:40;99823.91;;;6.54;70.47
7200;BME280;3641;49.082;8.200;2024-03-08T11:37:11;99816.63;;;6.47;69.37
7200;BME280;3641;49.082;8.200;2024-03-08T11:39:38;99818.97;;;6.58;70.87
7200;BME280;3641;49.082;8.200;2024-03-08T11:42:06;99812.91;;;6.56;70.71
7200;BME280;3641;49.082;8.200;2024-03-08T11:44:33;99811.31;;;6.78;70.99
7200;BME280;3641;49.082;8.200;2024-03-08T11:46:59;99808.25;;;6.81;70.51
7200;BME280;3641;49.082;8.200;2024-03-08T11:49:26;99811.53;;;7.08;71.20
7200;BME280;3641;49.082;8.200;2024-03-08T11:51:53;99797.81;;;7.01;69.62
7200;BME280;3641;49.082;8.200;2024-03-08T11:54:19;99797.25;;;7.14;69.13
7200;BME280;3641;49.082;8.200;2024-03-08T11:56:46;99794.28;;;7.32;69.08
7200;BME280;3641;49.082;8.200;2024-03-08T11:59:14;99798.63;;;7.18;68.30
7200;BME280;3641;49.082;8.200;2024-03-08T12:01:42;99785.41;;;7.15;68.50
7200;BME280;3641;49.082;8.200;2024-03-08T12:04:12;99785.13;;;7.33;68.28
7200;BME280;3641;49.082;8.200;2024-03-08T12:06:39;99776.63;;;7.36;68.48
7200;BME280;3641;49.082;8.200;2024-03-08T12:09:10;99780.84;;;7.07;68.13
7200;BME280;3641;49.082;8.200;2024-03-08T12:11:37;99768.34;;;7.30;66.64
7200;BME280;3641;49.082;8.200;2024-03-08T12:14:04;99765.75;;;7.36;66.87
7200;BME280;3641;49.082;8.200;2024-03-08T12:16:32;99768.25;;;7.46;67.13
7200;BME280;3641;49.082;8.200;2024-03-08T12:18:59;99757.56;;;7.44;67.19
7200;BME280;3641;49.082;8.200;2024-03-08T12:21:26;99752.75;;;7.55;67.10
7200;BME280;3641;49.082;8.200;2024-03-08T12:24:05;99749.88;;;7.25;66.95
7200;BME280;3641;49.082;8.200;2024-03-08T12:26:35;99747.72;;;7.43;66.89
7200;BME280;3641;49.082;8.200;2024-03-08T12:29:16;99744.88;;;7.37;67.84
7200;BME280;3641;49.082;8.200;2024-03-08T12:31:46;99746.94;;;7.35;66.66
7200;BME280;3641;49.082;8.200;2024-03-08T12:34:13;99748.34;;;7.54;67.87
7200;BME280;3641;49.082;8.200;2024-03-08T12:36:44;99735.22;;;7.57;68.70
7200;BME280;3641;49.082;8.200;2024-03-08T12:39:12;99741.38;;;7.51;66.92
7200;BME280;3641;49.082;8.200;2024-03-08T12:41:41;99735.69;;;7.69;66.61
7200;BME280;3641;49.082;8.200;2024-03-08T12:44:08;99730.09;;;7.39;66.45
7200;BME280;3641;49.082;8.200;2024-03-08T12:46:36;99727.19;;;7.64;66.58
7200;BME280;3641;49.082;8.200;2024-03-08T12:49:07;99723.03;;;7.76;66.57
7200;BME280;3641;49.082;8.200;2024-03-08T12:51:34;99714.78;;;7.70;66.21
7200;BME280;3641;49.082;8.200;2024-03-08T12:54:01;99699.28;;;7.55;65.77
7200;BME280;3641;49.082;8.200;2024-03-08T12:56:32;99703.00;;;7.77;65.87
7200;BME280;3641;49.082;8.200;2024-03-08T12:58:59;99702.31;;;7.75;66.07
7200;BME280;3641;49.082;8.200;2024-03-08T13:01:26;99687.69;;;7.61;64.19
7200;BME280;3641;49.082;8.200;2024-03-08T13:03:53;99702.28;;;7.84;67.78
7200;BME280;3641;49.082;8.200;2024-03-08T13:06:22;99697.03;;;7.97;65.33
7200;BME280;3641;49.082;8.200;2024-03-08T13:08:49;99676.81;;;7.61;64.44
7200;BME280;3641;49.082;8.200;2024-03-08T13:11:16;99683.81;;;7.79;64.90
7200;BME280;3641;49.082;8.200;2024-03-08T13:13:42;99674.56;;;7.88;65.38
7200;BME280;3641;49.082;8.200;2024-03-08T13:16:10;99671.28;;;7.55;64.81
7200;BME280;3641;49.082;8.200;2024-03-08T13:18:40;99665.06;;;7.84;66.20
7200;BME280;3641;49.082;8.200;2024-03-08T13:21:08;99664.69;;;7.72;64.92
7200;BME280;3641;49.082;8.200;2024-03-08T13:23:37;99664.34;;;7.90;65.49
7200;BME280;3641;49.082;8.200;2024-03-08T13:26:05;99660.56;;;7.91;65.60
7200;BME280;3641;49.082;8.200;2024-03-08T13:28:32;99649.63;;;7.99;65.95